My Meet Scores
Megan Goumas, Gymkhana Gymnastics Club and Dance Studio - MyMeetScores.com
Top100 | Top Teams | Upcoming Meets | Completed Meets | Latest | Add Scores | Help| Support | Bookmark and Share

Megan Goumas, Gymkhana Gymnastics Club and Dance Studio
Personal Bests
LevelVault BarsBeamFloorAA
49.3259.500 9.3509.52537.375
59.7009.150 9.4509.60037.075
79.3759.175 9.2509.45036.425
Meet Scores
Date Meet Team Session Level Division Vault Bars Beam Floor AA
2020-02-21 Kinetic Classic Gymkhana Gymnastics Club and Dance Studio 02 7 Middle 9.150 11T 9.175 27T 8.725 31T 9.375 15T 36.425 20
2020-02-07 Harley Meet Womens - Midwest Twisters Gymkhana Gymnastics Club and Dance Studio O02 7 Jr C 9.375 4T 9.000 2 8.125 13 9.425 1 35.925 4
2020-01-24 King Arthur Invitational Gymkhana Gymnastics Club and Dance Studio 2 7 SR A 8.950 3 8.675 9 9.250 3 9.300 4T 36.175 4
2020-01-10 St Jude Benefit Meet Gymkhana Gymnastics Club and Dance Studio 4B 7 Sr B 9.375 1 8.750 8 8.100 15 9.450 3T 35.675 8
2019-03-22 Illinois Gymnastics State Championships The Gymnastics Shop 2 5 SR B 9.700 2 8.850 17T 8.950 12 9.550 2 37.050 4
2019-02-23 Kinetic Classic 2019 The Gymnastics Shop 1 5 Older 8.925 6T 9.075 4T 8.825 7T 9.300 1 36.125 4
2019-02-08 IGI Chicago Style 2019 The Gymnastics Shop 48 5 632 LaSalle L5 C 9.500 2 9.000 3 8.900 4 9.400 2 36.800 2
2019-01-18 2019 Bravo Classic The Gymnastics Shop 2A 5 Sr 9.125 6 8.900 12T 9.450 1 9.600 3T 37.075 3
2019-01-11 St Jude Benefit Meet The Gymnastics Shop 9A 5 Sr B 9.250 4 8.825 4 8.775 3T 9.550 1 36.400 2
2018-12-07 St. Nick Invite 2018 The Gymnastics Shop 1 5 SrA 9.150 3 8.750 2 9.125 5 9.275 1 36.300 2
2018-11-30 Ultimate Wish Classic The Gymnastics Shop 6 5 SR A 9.225 3 9.150 3 8.700 7T 9.075 4T 36.150 3
2018-03-08 Level 4 & 5 State The Gymnastics Shop All 4 Sr A 9.325 3T 9.350 3 9.350 16 9.350 6 37.375 3
2018-02-23 Kinetic Classic The Gymnastics Shop 6 4 Older 9.200 17T 9.400 10* 8.950 34T 9.500 11T 37.050 11T
2018-02-08 Nashville Nights 2018 The Gymnastics Shop B03 4 JrC 8.700 3 9.450 1 9.200 2 9.350 1 36.700 2
2018-01-26 King Arthur Invitational The Gymnastics Shop 2 4 Sr A 9.050 3 9.175 3 9.025 4 9.225 3 36.475 3
2018-01-12 Legacy Elite Winter Classic The Gymnastics Shop 3 4 JrA 9.100 1 9.250 2 9.125 3T 9.350 1 36.825 2
2017-12-08 St. Nick Invite The Gymnastics Shop 1 4 SrA 9.300 1 9.225 3 9.150 6T 9.475 1 37.150 2
2017-12-01 Ultimate Wish Classic The Gymnastics Shop 10 4 Sr B 9.200 2T 9.025 3 8.550 6T 9.525 1 36.300 2
2017-10-27 M&M's Pixie Dust Invitational The Gymnastics Shop 4 4 10 yrs. 8.075 10 9.500 2 9.075 3 8.900 4 35.550 2
2017-03-10 2017 Illinois Level 4 State Championships The Gymnastics Shop 4 4 Youth D 8.275 28 8.400 23 8.750 24T 9.025 13T 34.450 26
2017-02-17 Big Classic The Gymnastics Shop B 4 Child B 8.250 41T 7.700 46T 8.150 50 9.150 8 33.250 42
2017-02-10 IGI Chicago Style Gymnastics Meet The Gymnastics Shop 621L 4 JrB 8.325 12 8.200 12 8.250 18 9.000 6 33.775 14
2017-02-03 2017 Classic Spectacular The Gymnastics Shop JO6 4 Senior 8.000 12 7.800 15 8.325 16 9.000 3 33.125 10
2017-01-13 Legacy Elite Winter Classic The Gymnastics Shop B4 4 ChB 7.500 15 8.875 10 8.400 13 9.275 8 34.050 12
2016-12-15 2016 Hawaiian Pineapple Sanction The Gymnastics Shop 1A 4 Age 10 8.125 15 8.125 14 7.650 16 8.900 5 32.800 15
2016-12-02 Ultimate Wish Classic The Gymnastics Shop 13 4 Sr A 7.850 19 7.550 14T 8.100 20 8.800 11T 32.300 17
2016-11-11 2016 Illinois Judges Cup The Gymnastics Shop R6 4 9 Year Old 7.650 14 7.500 15 8.075 13 8.975 3 32.200 15
Get your scores on
a t-shirt, pin, or hoodie

www.lazysuits.com